Tiempo atmosférico en la estación meteorológica de Haría, Las Palmas (277 m.)



Fecha
DESCASC
Temp. máxima en grados centígrados (hora)
DESCASC
Temp. mínima en grados centígrados (hora)
DESCASC
Temp. media en grados centígrados
DESCASC
Racha de viento máxima en m/sg (hora)
DESCASC
Velocidad máxima media en intervalos de 10 minutos(hora)
DESCASC
Precipitaciones diarias en mm
DESCASC
Precipitaciones de 00:00 a 06:00 en mm
DESCASC
Precipitaciones de 06:00 a 12:00 en mm
DESCASC
Precipitaciones de 12:00 a 18:00 en mm
DESCASC
Precipitaciones de 18:00 a 24:00 en mm
DESCASC
11-12-2019 17.5 (14:00) 15.1 (02:20) 16.3 8.89 (17:20) 6.11 (12:00) 0 0 0 0 0
10-12-2019 18.9 (11:30) 14.6 (00:40) 16.8 11.67 (12:50) 7.22 (17:30) 0 0 0 0 0
09-12-2019 18.4 (14:30) 14.8 (06:30) 16.6 9.72 (12:10) 6.11 (11:20) 0 0 0 0 0
08-12-2019 18.4 (12:40) 14.8 (00:00) 16.6 11.39 (14:10) 7.22 (15:00) 0.2 0 0.2 0 0
07-12-2019 18.5 (14:50) 14.4 (00:00) 16.4 9.17 (16:50) 5.56 (16:20) 0.4 0.2 0 0.2 0
06-12-2019 17.5 (14:00) 13.2 (00:00) 15.3 13.33 (06:20) 7.5 (06:20) 8 1.8 5 1 0.2
05-12-2019 16.5 (13:50) 13.8 (00:00) 15.2 19.72 (03:40) 13.89 (03:40) 13.2 11 0.6 0.6 1
04-12-2019 19 (12:30) 14.8 (00:00) 16.9 13.61 (23:20) 8.89 (23:20) 5.6 0 0 0 5.6
03-12-2019 19 (12:50) 15.1 (00:00) 17.1 19.17 (00:40) 11.67 (00:50) 0.2 0.2 0 0 0
02-12-2019 17.8 (15:00) 15.1 (00:00) 16.4 15.83 (21:20) 10.83 (23:50) 1.8 0 0.8 1 0
01-12-2019 19.9 (12:00) 15.5 (00:00) 17.7 10.83 (21:40) 6.39 (12:50) 0 0 0 0 0
30-11-2019 24.3 (11:50) 13.9 (00:00) 19.1 6.39 (14:10) 4.72 (14:10) 0 0 0 0 0
29-11-2019 24.1 (13:40) 15 (00:00) 19.6 6.11 (11:20) 4.17 (13:50) 0 0 0 0 0
28-11-2019 20.7 (14:00) 16 (00:00) 18.4 6.11 (16:50) 3.33 (15:20) 0 0 0 0 0
27-11-2019 -- (--) -- (--) -- -- (--) -- (--) -- 0 0 -- 0
26-11-2019 21.2 (12:50) 15.6 (00:00) 18.4 8.89 (14:20) 6.11 (14:40) 0 0 0 0 0
25-11-2019 19 (13:50) 15.7 (00:00) 17.3 9.17 (13:20) 5.56 (13:20) 0 0 0 0 0
24-11-2019 19.6 (13:50) 15.9 (00:00) 17.8 11.67 (11:20) 8.33 (11:20) 0 0 0 0 0
23-11-2019 20.1 (13:00) 17.2 (00:00) 18.7 14.17 (01:50) 10.28 (02:00) 0 0 0 0 0
22-11-2019 20.2 (14:10) 17.5 (00:00) 18.9 13.89 (00:20) 9.72 (01:20) 0 0 0 0 0
21-11-2019 20.3 (11:40) 15.8 (00:00) 18 13.06 (23:59) 8.61 (23:59) 0 0 0 0 0
20-11-2019 20 (14:10) 13.1 (00:00) 16.6 13.61 (22:40) 8.89 (22:40) 0 0 0 0 0
19-11-2019 19 (12:50) 14.4 (00:00) 16.7 10.56 (12:20) 7.5 (06:20) 0 0 0 0 0
18-11-2019 18.8 (14:10) 13.5 (00:00) 16.1 8.61 (16:50) 5.56 (16:30) 0 0 0 0 0
17-11-2019 17.9 (11:00) 13.9 (00:00) 15.9 11.11 (14:00) 6.94 (00:50) 0 0 0 0 0
16-11-2019 18.2 (11:20) 14.1 (00:00) 16.2 15.28 (06:40) 8.89 (06:40) 0 0 0 0 0
15-11-2019 19 (12:30) 14.6 (00:00) 16.8 17.5 (16:40) 9.44 (08:30) 0 0 0 0 0

Gráficas

Temp. máximas Temp. mínimas Temp. medias Precipitaciones Rachas de viento máximas Velocidades máximas media en intervalos de 10 minutos

Datos horarios

Fecha y hora oficial Temperatura (ºC) Velocidad del viento (km/h) Dirección del viento Racha (km/h) Dirección de racha Precipitación (mm) Presión (hPa) Tendencia (hPa) Humedad (%)
2019-12-14 23:00:00 14.8 8 Noroeste 14 Noroeste 0 -- -- 90
2019-12-14 22:00:00 15.1 10 Noroeste 18 Noroeste 0 -- -- 90
2019-12-14 21:00:00 15.4 9 Noroeste 21 Noroeste 0 -- -- 88
2019-12-14 20:00:00 15.8 11 Noroeste 21 Noroeste 0 -- -- 87
2019-12-14 19:00:00 16 10 Noroeste 22 Noroeste 0 -- -- 86
2019-12-14 18:00:00 16.2 14 Noroeste 26 Noroeste 0 -- -- 84
2019-12-14 17:00:00 16.6 22 Noroeste 30 Noroeste 0 -- -- 80
2019-12-14 16:00:00 17.9 17 Noroeste 30 Oeste 0 -- -- 77
2019-12-14 15:00:00 18.5 17 Oeste 26 Oeste 0 -- -- 77
2019-12-14 14:00:00 19.4 17 Oeste 24 Oeste 0 -- -- 72
2019-12-14 13:00:00 19.2 15 Noroeste 33 Norte 0 -- -- 68
2019-12-14 12:00:00 18.7 17 Noroeste 28 Noroeste 0 -- -- 69
2019-12-14 11:00:00 17.5 14 Noroeste 22 Noroeste 0 -- -- 78
2019-12-14 10:00:00 17.4 9 Norte 20 Norte 0 -- -- 83
2019-12-14 09:00:00 16.2 9 Norte 14 Norte 0 -- -- 92
2019-12-14 08:00:00 15.6 2 Norte 5 Nordeste 0 -- -- 92
2019-12-14 07:00:00 15.5 3 Nordeste 14 Nordeste 0 -- -- 92
2019-12-14 06:00:00 15.6 6 Nordeste 20 Nordeste 0 -- -- 92
2019-12-14 05:00:00 15.7 9 Nordeste 19 Nordeste 0 -- -- 92
2019-12-14 04:00:00 15.5 8 Nordeste 19 Nordeste 0 -- -- 91
2019-12-14 03:00:00 15.3 10 Nordeste 24 Nordeste 0 -- -- 90
2019-12-14 02:00:00 15.8 11 Nordeste 25 Nordeste 0 -- -- 88
2019-12-14 01:00:00 15.8 11 Nordeste 30 Nordeste 0 -- -- 86
2019-12-14 00:00:00 15.9 18 Nordeste 33 Nordeste 0 -- -- 87
2019-12-13 23:00:00 15.9 18 Nordeste 30 Nordeste 0 -- -- 88
2019-12-13 22:00:00 15.8 14 Nordeste 31 Nordeste 0 -- -- 85
2019-12-13 21:00:00 15.6 14 Nordeste 29 Nordeste 0 -- -- 84
2019-12-13 20:00:00 15.8 15 Nordeste 31 Nordeste 0 -- -- 84
2019-12-13 19:00:00 15.7 17 Norte 35 Norte 0 -- -- 84
2019-12-13 18:00:00 15.9 20 Norte 34 Norte 0 -- -- 82
2019-12-13 17:00:00 16.6 21 Norte 42 Norte 0 -- -- 78
2019-12-13 16:00:00 17.3 24 Norte 40 Norte 0 -- -- 75
2019-12-13 15:00:00 17.9 22 Norte 40 Norte 0 -- -- 73
2019-12-13 14:00:00 18 25 Nordeste 41 Nordeste 0 -- -- 69
2019-12-13 13:00:00 17.6 24 Nordeste 42 Nordeste 0 -- -- 72
2019-12-13 12:00:00 17.4 26 Nordeste 39 Nordeste 0 -- -- 70
2019-12-13 11:00:00 16.6 23 Nordeste 38 Nordeste 0 -- -- 75
2019-12-13 10:00:00 16.2 25 Nordeste 39 Nordeste 0 -- -- 73
2019-12-13 09:00:00 15.7 23 Nordeste 37 Nordeste 0 -- -- 76
2019-12-13 08:00:00 15.5 22 Nordeste 38 Nordeste 0 -- -- 75
2019-12-13 07:00:00 15.2 19 Norte 37 Nordeste 0 -- -- 76
2019-12-13 06:00:00 14.9 23 Nordeste 36 Norte 0 -- -- 75
2019-12-13 05:00:00 14.8 21 Norte 41 Norte 0 -- -- 76
2019-12-13 04:00:00 14.7 23 Norte 42 Norte 0 -- -- 76
2019-12-13 03:00:00 14.8 21 Norte 40 Norte 0 -- -- 76
2019-12-13 02:00:00 15.1 18 Norte 33 Nordeste 0 -- -- 78
2019-12-13 01:00:00 15 19 Norte 37 Norte 0 -- -- 75
2019-12-13 00:00:00 14.9 23 Nordeste 40 Norte 0 -- -- 74
2019-12-12 23:00:00 15.1 22 Nordeste 48 Norte 0 -- -- 74
2019-12-12 22:00:00 15.1 24 Nordeste 43 Norte 0 -- -- 75
2019-12-12 21:00:00 15.1 23 Nordeste 42 Norte 0 -- -- 76
2019-12-12 20:00:00 15.2 24 Norte 41 Norte 0 -- -- 74
2019-12-12 19:00:00 15.5 23 Norte 42 Nordeste 0 -- -- 73
2019-12-12 18:00:00 16 24 Norte 44 Norte 0 -- -- 74
2019-12-12 17:00:00 16.5 24 Norte 42 Norte 0 -- -- 77
2019-12-12 16:00:00 16.8 24 Norte 39 Norte 0 -- -- 76
2019-12-12 15:00:00 17.2 24 Norte 41 Norte 0 -- -- 74
2019-12-12 14:00:00 17.6 26 Norte 41 Nordeste 0 -- -- 75
2019-12-12 13:00:00 17.7 26 Nordeste 42 Nordeste 0 -- -- 75
2019-12-12 12:00:00 17.4 28 Nordeste 46 Norte 0 -- -- 77
2019-12-12 11:00:00 17.5 28 Nordeste 43 Nordeste 0 -- -- 79
2019-12-12 10:00:00 17 27 Nordeste 42 Nordeste 0 -- -- 83
2019-12-12 09:00:00 16.6 24 Nordeste 37 Nordeste 0 -- -- 86
2019-12-12 08:00:00 16.1 22 Nordeste 38 Nordeste 0 -- -- 88
2019-12-12 07:00:00 15.6 26 Nordeste 44 Nordeste 0 -- -- 87
2019-12-12 06:00:00 15.4 18 Nordeste 41 Nordeste 0 -- -- 88
2019-12-12 05:00:00 15.2 18 Nordeste 32 Nordeste 0 -- -- 88
2019-12-12 04:00:00 15.2 10 Este 26 Norte 0 -- -- 88
2019-12-12 03:00:00 15.2 15 Nordeste 31 Nordeste 0 -- -- 89
2019-12-12 02:00:00 15.1 17 Nordeste 32 Nordeste 0 -- -- 88
2019-12-12 01:00:00 15.3 17 Nordeste 31 Norte 0 -- -- 88
2019-12-12 00:00:00 15.3 14 Nordeste 30 Nordeste 0 -- -- 88
2019-12-11 23:00:00 15.5 15 Nordeste 28 Nordeste 0 -- -- 87
2019-12-11 22:00:00 15.5 13 Nordeste 26 Nordeste 0 -- -- 86
2019-12-11 21:00:00 15.6 12 Nordeste 28 Nordeste 0 -- -- 84
2019-12-11 20:00:00 15.7 17 Nordeste 29 Nordeste 0 -- -- 82
2019-12-11 19:00:00 15.8 12 Nordeste 30 Nordeste 0 -- -- 80
2019-12-11 18:00:00 16 17 Nordeste 32 Nordeste 0 -- -- 78
2019-12-11 17:00:00 16.6 19 Nordeste 31 Nordeste 0 -- -- 76
2019-12-11 16:00:00 17 18 Nordeste 30 Nordeste 0 -- -- 75
2019-12-11 15:00:00 17.2 19 Nordeste 30 Nordeste 0 -- -- 74
2019-12-11 14:00:00 17.5 17 Nordeste 31 Nordeste 0 -- -- 72
2019-12-11 13:00:00 17.2 19 Nordeste 31 Nordeste 0 -- -- 76
2019-12-11 12:00:00 16.9 22 Nordeste 30 Norte 0 -- -- 76
2019-12-11 11:00:00 16.7 20 Nordeste 28 Nordeste 0 -- -- 79
2019-12-11 10:00:00 16.4 13 Nordeste 25 Nordeste 0 -- -- 83
2019-12-11 09:00:00 16.1 13 Nordeste 26 Nordeste 0 -- -- 85
2019-12-11 08:00:00 15.8 11 Nordeste 23 Nordeste 0 -- -- 87
2019-12-11 07:00:00 15.7 10 Nordeste 20 Nordeste 0 -- -- 88
2019-12-11 06:00:00 15.7 14 Nordeste 24 Nordeste 0 -- -- 90
2019-12-11 05:00:00 15.6 8 Nordeste 21 Nordeste 0 -- -- 92
2019-12-11 04:00:00 15.2 4 Nordeste 13 Nordeste 0 -- -- 93
2019-12-11 03:00:00 15.3 6 Nordeste 14 Nordeste 0 -- -- 93
2019-12-11 02:00:00 15.3 7 Nordeste 18 Este 0 -- -- 92
2019-12-11 01:00:00 15.5 10 Nordeste 22 Nordeste 0 -- -- 92
2019-12-11 00:00:00 15.8 13 Nordeste 24 Este 0 -- -- 91
2019-12-10 23:00:00 15.8 11 Este 24 Nordeste 0 -- -- 91
2019-12-10 22:00:00 15.9 13 Nordeste 26 Nordeste 0 -- -- 90
2019-12-10 21:00:00 16.1 14 Nordeste 26 Nordeste 0 -- -- 89
2019-12-10 20:00:00 16.1 18 Nordeste 30 Nordeste 0 -- -- 89
2019-12-10 19:00:00 16.4 19 Nordeste 33 Nordeste 0 -- -- 88
2019-12-10 18:00:00 16.7 22 Nordeste 38 Nordeste 0 -- -- 87
2019-12-10 17:00:00 17.1 19 Nordeste 36 Nordeste 0 -- -- 85
2019-12-10 16:00:00 17.7 23 Nordeste 39 Nordeste 0 -- -- 82
2019-12-10 15:00:00 18 24 Norte 36 Nordeste 0 -- -- 80
2019-12-10 14:00:00 18.4 19 Norte 36 Norte 0 -- -- 79
2019-12-10 13:00:00 18.5 17 Norte 42 Norte 0 -- -- 78
2019-12-10 12:00:00 18.6 19 Nordeste 30 Norte 0 -- -- 77
2019-12-10 11:00:00 18.6 16 Nordeste 28 Nordeste 0 -- -- 79
2019-12-10 10:00:00 17.8 15 Nordeste 26 Nordeste 0 -- -- 86
2019-12-10 09:00:00 16.3 9 Nordeste 17 Nordeste 0 -- -- 93
2019-12-10 08:00:00 15.3 8 Nordeste 14 Nordeste 0 -- -- 94
2019-12-10 07:00:00 15.3 6 Nordeste 16 Nordeste 0 -- -- 93
2019-12-10 06:00:00 15.4 10 Nordeste 19 Nordeste 0 -- -- 93
2019-12-10 05:00:00 15.2 8 Nordeste 17 Nordeste 0 -- -- 92
2019-12-10 04:00:00 15 5 Nordeste 16 Nordeste 0 -- -- 91
2019-12-10 03:00:00 14.9 8 Nordeste 15 Nordeste 0 -- -- 91
2019-12-10 02:00:00 14.8 5 Norte 15 Norte 0 -- -- 90
2019-12-10 01:00:00 14.6 4 Norte 9 Nordeste 0 -- -- 91
2019-12-10 00:00:00 14.9 4 Nordeste 10 Nordeste 0 -- -- 90
2019-12-09 23:00:00 15.1 5 Nordeste 16 Nordeste 0 -- -- 90
2019-12-09 22:00:00 15.3 10 Nordeste 15 Nordeste 0 -- -- 88
2019-12-09 21:00:00 15.3 7 Este 16 Nordeste 0 -- -- 88
2019-12-09 20:00:00 15.6 7 Este 22 Nordeste 0 -- -- 87
2019-12-09 19:00:00 15.8 12 Nordeste 24 Norte 0 -- -- 86
2019-12-09 18:00:00 16.3 15 Nordeste 25 Nordeste 0 -- -- 85
2019-12-09 17:00:00 16.8 14 Nordeste 27 Nordeste 0 -- -- 82
2019-12-09 16:00:00 17.4 16 Nordeste 27 Nordeste 0 -- -- 77
2019-12-09 15:00:00 17.9 15 Nordeste 26 Este 0 -- -- 76
2019-12-09 14:00:00 17.7 15 Nordeste 31 Nordeste 0 -- -- 76
2019-12-09 13:00:00 17.9 17 Nordeste 35 Este 0 -- -- 78
2019-12-09 12:00:00 18.2 20 Nordeste 31 Nordeste 0 -- -- 78
2019-12-09 11:00:00 18.1 21 Nordeste 29 Este 0 -- -- 80
2019-12-09 10:00:00 17.3 17 Nordeste 28 Nordeste 0 -- -- 86
2019-12-09 09:00:00 16.1 7 Este 23 Este 0 -- -- 92
2019-12-09 08:00:00 15.1 8 Nordeste 19 Este 0 -- -- 92
2019-12-09 07:00:00 15 8 Nordeste 19 Nordeste 0 -- -- 92
2019-12-09 06:00:00 15 10 Nordeste 21 Nordeste 0 -- -- 92
2019-12-09 05:00:00 15 6 Nordeste 21 Este 0 -- -- 92
2019-12-09 04:00:00 15.1 12 Este 23 Nordeste 0 -- -- 91
2019-12-09 03:00:00 15.2 14 Nordeste 24 Nordeste 0 -- -- 90
2019-12-09 02:00:00 15.3 10 Nordeste 19 Norte 0 -- -- 88
2019-12-09 01:00:00 15.7 11 Nordeste 21 Nordeste 0 -- -- 87
2019-12-09 00:00:00 15.7 11 Nordeste 27 Nordeste 0 -- -- 85
2019-12-08 23:00:00 15.9 17 Nordeste 32 Nordeste 0 -- -- 83
2019-12-08 22:00:00 16 21 Nordeste 37 Nordeste 0 -- -- 83
2019-12-08 21:00:00 16.1 22 Nordeste 35 Nordeste 0 -- -- 83
2019-12-08 20:00:00 16 22 Nordeste 35 Nordeste 0 -- -- 82
2019-12-08 19:00:00 16.1 19 Nordeste 34 Nordeste 0 -- -- 83
2019-12-08 18:00:00 16.3 20 Nordeste 34 Norte 0 -- -- 81
2019-12-08 17:00:00 16.8 21 Nordeste 35 Nordeste 0 -- -- 79
2019-12-08 16:00:00 17.2 22 Nordeste 37 Nordeste 0 -- -- 78
2019-12-08 15:00:00 17.4 26 Nordeste 41 Nordeste 0 -- -- 77
2019-12-08 14:00:00 18.2 24 Nordeste 40 Nordeste 0 -- -- 74
2019-12-08 13:00:00 18.2 24 Nordeste 39 Nordeste 0 -- -- 73
2019-12-08 12:00:00 17.8 26 Nordeste 37 Nordeste 0 -- -- 73
2019-12-08 11:00:00 17.8 22 Nordeste 34 Nordeste 0 -- -- 72
2019-12-08 10:00:00 16.7 24 Nordeste 33 Nordeste 0 -- -- 77
2019-12-08 09:00:00 16.1 19 Norte 31 Norte 0 -- -- 80
2019-12-08 08:00:00 15.2 21 Norte 33 Norte 0.2 -- -- 82
2019-12-08 07:00:00 14.9 15 Norte 27 Norte 0 -- -- 83
2019-12-08 06:00:00 14.8 11 Norte 28 Norte 0 -- -- 85
2019-12-08 05:00:00 15.1 16 Norte 32 Norte 0 -- -- 84
2019-12-08 04:00:00 15.2 18 Norte 30 Norte 0 -- -- 84
2019-12-08 03:00:00 15.2 13 Norte 28 Norte 0 -- -- 85
2019-12-08 02:00:00 15.4 13 Norte 24 Nordeste 0 -- -- 84
2019-12-08 01:00:00 15.3 15 Norte 31 Norte 0 -- -- 84
2019-12-08 00:00:00 15.6 13 Norte 25 Norte 0 -- -- 85
2019-12-07 23:00:00 15.5 13 Norte 27 Nordeste 0 -- -- 85
2019-12-07 22:00:00 15.8 14 Nordeste 25 Nordeste 0 -- -- 87
2019-12-07 21:00:00 15.9 15 Nordeste 29 Norte 0 -- -- 89
2019-12-07 20:00:00 15.7 15 Norte 26 Norte 0 -- -- 90
2019-12-07 19:00:00 15.7 15 Norte 24 Norte 0 -- -- 91
2019-12-07 18:00:00 15.8 8 Nordeste 23 Nordeste 0 -- -- 90
2019-12-07 17:00:00 16.6 13 Nordeste 33 Norte 0 -- -- 86
2019-12-07 16:00:00 17.5 15 Norte 28 Norte 0 -- -- 81
2019-12-07 15:00:00 18.3 17 Norte 30 Norte 0 -- -- 73
2019-12-07 14:00:00 17.5 17 Norte 27 Norte 0 -- -- 75
2019-12-07 13:00:00 18.2 15 Nordeste 26 Nordeste 0.2 -- -- 77
2019-12-07 12:00:00 18 15 Norte 26 Nordeste 0 -- -- 77
2019-12-07 11:00:00 18.4 15 Norte 26 Nordeste 0 -- -- 77
2019-12-07 10:00:00 17.3 15 Norte 23 Norte 0 -- -- 82
2019-12-07 09:00:00 15.6 9 Norte 15 Norte 0 -- -- 89
2019-12-07 08:00:00 15 11 Norte 19 Norte 0 -- -- 90
2019-12-07 07:00:00 15.1 13 Norte 25 Noroeste 0 -- -- 91
2019-12-07 06:00:00 14.9 13 Noroeste 24 Noroeste 0.2 -- -- 90
2019-12-07 05:00:00 14.4 9 Noroeste 18 Noroeste 0 -- -- 87
2019-12-07 04:00:00 15.1 10 Noroeste 22 Norte 0 -- -- 84
2019-12-07 03:00:00 15.1 13 Norte 24 Norte 0 -- -- 82
2019-12-07 02:00:00 15.1 18 Norte 27 Noroeste 0 -- -- 81
2019-12-07 01:00:00 15 17 Norte 26 Noroeste 0 -- -- 83
2019-12-07 00:00:00 14.7 14 Norte 27 Norte 0 -- -- 81
2019-12-06 23:00:00 15.2 17 Norte 31 Norte 0 -- -- 81
2019-12-06 22:00:00 15.2 17 Norte 31 Norte 0 -- -- 83
2019-12-06 21:00:00 15.1 21 Norte 33 Norte 0 -- -- 83
2019-12-06 20:00:00 14.8 18 Norte 34 Norte 0 -- -- 82
2019-12-06 19:00:00 14.6 24 Norte 35 Norte 0.2 -- -- 78
2019-12-06 18:00:00 13.4 7 Noroeste 38 Nordeste 0.4 -- -- 89
2019-12-06 17:00:00 15.6 23 Norte 40 Norte 0.6 -- -- 83
2019-12-06 16:00:00 15.8 13 Norte 40 Norte 0 -- -- 82
2019-12-06 15:00:00 16.5 21 Norte 39 Norte 0 -- -- 78
2019-12-06 14:00:00 17.5 19 Norte 38 Noroeste 0 -- -- 77
2019-12-06 13:00:00 16.8 20 Noroeste 36 Norte 0 -- -- 81
2019-12-06 12:00:00 16.5 23 Noroeste 37 Noroeste 0.2 -- -- 87
2019-12-06 11:00:00 15.8 18 Norte 34 Norte 1.8 -- -- 89
2019-12-06 10:00:00 15.3 14 Norte 24 Norte 2.8 -- -- 89
2019-12-06 09:00:00 15.5 13 Norte 23 Norte 0 -- -- 89
2019-12-06 08:00:00 14.1 14 Norte 27 Noroeste 0 -- -- 91
2019-12-06 07:00:00 13.4 13 Norte 48 Norte 0.2 -- -- 91
2019-12-06 06:00:00 14.5 22 Norte 42 Norte 0.2 -- -- 88
2019-12-06 05:00:00 13.9 20 Norte 32 Noroeste 1.6 -- -- 89
2019-12-06 04:00:00 14.5 22 Norte 37 Norte 0 -- -- 84
2019-12-06 03:00:00 14.4 15 Norte 27 Norte 0 -- -- 87
2019-12-06 02:00:00 14.5 15 Norte 29 Norte 0 -- -- 88
2019-12-06 01:00:00 14.6 15 Norte 26 Norte 0 -- -- 89
2019-12-06 00:00:00 14.8 14 Norte 36 Norte 0 -- -- 89
2019-12-05 23:00:00 14.8 25 Norte 44 Norte 0.8 -- -- 88
2019-12-05 22:00:00 14.8 30 Noroeste 55 Noroeste 0 -- -- 87
2019-12-05 21:00:00 15.3 41 Noroeste 65 Noroeste 0.2 -- -- 80
2019-12-05 20:00:00 15.3 36 Noroeste 60 Noroeste 0 -- -- 81
2019-12-05 19:00:00 15.1 38 Noroeste 58 Noroeste 0 -- -- 81
2019-12-05 18:00:00 14.8 34 Noroeste 63 Noroeste 0 -- -- 83
2019-12-05 17:00:00 15.3 38 Noroeste 62 Noroeste 0 -- -- 83
2019-12-05 16:00:00 15.2 33 Noroeste 55 Noroeste 0 -- -- 79
2019-12-05 15:00:00 15.1 35 Noroeste 49 Noroeste 0.4 -- -- 82
2019-12-05 14:00:00 15.7 28 Noroeste 56 Noroeste 0.2 -- -- 75
2019-12-05 13:00:00 16.1 30 Noroeste 49 Noroeste 0 -- -- 75
2019-12-05 12:00:00 16.3 28 Noroeste 53 Noroeste 0 -- -- 78
2019-12-05 11:00:00 16 29 Noroeste 51 Noroeste 0 -- -- 84
2019-12-05 10:00:00 14.7 32 Oeste 57 Noroeste 0.6 -- -- 82
2019-12-05 09:00:00 15 28 Noroeste 63 Norte 0 -- -- 79
2019-12-05 08:00:00 14.7 28 Noroeste 60 Noroeste 0 -- -- 80
2019-12-05 07:00:00 14.2 38 Noroeste 65 Noroeste 0 -- -- 81
2019-12-05 06:00:00 14 41 Noroeste 64 Noroeste 1.4 -- -- 84
2019-12-05 05:00:00 14.7 28 Noroeste 63 Noroeste 0 -- -- 77
2019-12-05 04:00:00 14.8 45 Noroeste 71 Noroeste 0 -- -- 73
2019-12-05 03:00:00 14.7 36 Noroeste 60 Noroeste 0 -- -- 81
2019-12-05 02:00:00 14.1 37 Noroeste 68 Noroeste 1.6 -- -- 94
2019-12-05 01:00:00 14.3 32 Noroeste 56 Noroeste 8 -- -- 94
2019-12-05 00:00:00 15.5 25 Oeste 49 Oeste 5.6 -- -- 92
2019-12-04 23:00:00 16.5 27 Oeste 47 Oeste 0 -- -- 83
2019-12-04 22:00:00 16.3 22 Oeste 42 Noroeste 0 -- -- 83
2019-12-04 21:00:00 16 21 Noroeste 45 Noroeste 0 -- -- 80
2019-12-04 20:00:00 16.4 28 Noroeste 44 Noroeste 0 -- -- 78
2019-12-04 19:00:00 16.3 27 Noroeste 45 Oeste 0 -- -- 75
2019-12-04 18:00:00 16.2 23 Noroeste 42 Oeste 0 -- -- 75
2019-12-04 17:00:00 16.8 26 Noroeste 45 Oeste 0 -- -- 74
2019-12-04 16:00:00 17.1 25 Noroeste 45 Noroeste 0 -- -- 70
2019-12-04 15:00:00 17.8 18 Noroeste 36 Noroeste 0 -- -- 67
2019-12-04 14:00:00 17.8 22 Noroeste 32 Oeste 0 -- -- 71
2019-12-04 13:00:00 18.2 18 Noroeste 36 Oeste 0 -- -- 67
2019-12-04 12:00:00 18.7 17 Noroeste 32 Noroeste 0 -- -- 65
2019-12-04 11:00:00 17.8 21 Noroeste 41 Noroeste 0 -- -- 69
2019-12-04 10:00:00 17.4 19 Noroeste 33 Noroeste 0 -- -- 69
2019-12-04 09:00:00 16.5 16 Noroeste 30 Noroeste 0 -- -- 75
2019-12-04 08:00:00 15.7 12 Noroeste 20 Noroeste 0 -- -- 80
2019-12-04 07:00:00 15.1 12 Noroeste 23 Noroeste 0 -- -- 79
2019-12-04 06:00:00 15.1 13 Noroeste 27 Noroeste 0 -- -- 79
2019-12-04 05:00:00 14.9 18 Noroeste 25 Noroeste 0 -- -- 82
2019-12-04 04:00:00 15.1 17 Noroeste 24 Noroeste 0 -- -- 84
2019-12-04 03:00:00 15.4 18 Noroeste 30 Noroeste 0 -- -- 81
2019-12-04 02:00:00 15.5 21 Noroeste 30 Noroeste 0 -- -- 80
2019-12-04 01:00:00 15.8 19 Noroeste 35 Noroeste 0 -- -- 80
2019-12-04 00:00:00 15.9 18 Noroeste 28 Noroeste 0 -- -- 78
2019-12-03 23:00:00 15.6 17 Noroeste 29 Noroeste 0 -- -- 78
2019-12-03 22:00:00 15.5 18 Noroeste 28 Noroeste 0 -- -- 78
2019-12-03 21:00:00 15.7 17 Noroeste 30 Noroeste 0 -- -- 78
2019-12-03 20:00:00 16 23 Noroeste 33 Noroeste 0 -- -- 77
2019-12-03 19:00:00 15.9 21 Noroeste 36 Noroeste 0 -- -- 76
2019-12-03 18:00:00 16.2 21 Noroeste 33 Noroeste 0 -- -- 76
2019-12-03 17:00:00 17.1 23 Noroeste 38 Noroeste 0 -- -- 73
2019-12-03 16:00:00 17.2 22 Noroeste 44 Noroeste 0 -- -- 73
2019-12-03 15:00:00 17.5 28 Noroeste 52 Noroeste 0 -- -- 69
2019-12-03 14:00:00 18.9 26 Noroeste 50 Noroeste 0 -- -- 61
2019-12-03 13:00:00 18.6 28 Noroeste 50 Noroeste 0 -- -- 63
2019-12-03 12:00:00 18.5 28 Noroeste 48 Noroeste 0 -- -- 62
2019-12-03 11:00:00 17.9 26 Noroeste 44 Norte 0 -- -- 66
2019-12-03 10:00:00 15.9 32 Noroeste 49 Noroeste 0 -- -- 76
2019-12-03 09:00:00 16.3 29 Noroeste 45 Noroeste 0 -- -- 68
2019-12-03 08:00:00 15.5 30 Noroeste 42 Noroeste 0 -- -- 67
2019-12-03 07:00:00 15.3 28 Noroeste 52 Noroeste 0 -- -- 67
2019-12-03 06:00:00 15.4 29 Noroeste 53 Norte 0 -- -- 71
2019-12-03 05:00:00 15.4 31 Noroeste 49 Norte 0.2 -- -- 73
2019-12-03 04:00:00 15.7 35 Noroeste 61 Noroeste 0 -- -- 72
2019-12-03 03:00:00 15.7 37 Noroeste 63 Noroeste 0 -- -- 70
2019-12-03 02:00:00 15.5 40 Noroeste 58 Noroeste 0 -- -- 73
2019-12-03 01:00:00 15.4 39 Noroeste 69 Noroeste 0 -- -- 75
2019-12-03 00:00:00 15.3 39 Noroeste 57 Noroeste 0 -- -- 79
2019-12-02 23:00:00 16 35 Noroeste 54 Noroeste 0 -- -- 74
2019-12-02 22:00:00 15.5 35 Noroeste 57 Noroeste 0 -- -- 72
2019-12-02 21:00:00 15.8 34 Noroeste 55 Noroeste 0 -- -- 74
2019-12-02 20:00:00 15.4 31 Noroeste 53 Noroeste 0 -- -- 82
2019-12-02 19:00:00 16 29 Noroeste 53 Noroeste 0 -- -- 76
2019-12-02 18:00:00 15.9 29 Noroeste 49 Noroeste 0 -- -- 77
2019-12-02 17:00:00 16.1 32 Noroeste 53 Noroeste 0 -- -- 77
2019-12-02 16:00:00 15.5 24 Noroeste 49 Noroeste 0.6 -- -- 87
2019-12-02 15:00:00 17.8 26 Noroeste 51 Noroeste 0 -- -- 72
2019-12-02 14:00:00 17.4 31 Noroeste 44 Noroeste 0 -- -- 77
2019-12-02 13:00:00 16.2 25 Noroeste 51 Noroeste 0.4 -- -- 88
2019-12-02 12:00:00 16.5 23 Noroeste 42 Noroeste 0 -- -- 86
2019-12-02 11:00:00 16 30 Noroeste 50 Noroeste 0 -- -- 83
2019-12-02 10:00:00 15.6 32 Noroeste 50 Norte 0.8 -- -- 83
2019-12-02 09:00:00 16.9 27 Noroeste 45 Noroeste 0 -- -- 72
2019-12-02 08:00:00 16.3 27 Noroeste 49 Noroeste 0 -- -- 73
2019-12-02 07:00:00 16.2 33 Noroeste 46 Noroeste 0 -- -- 72
2019-12-02 06:00:00 16.2 25 Noroeste 54 Noroeste 0 -- -- 78
2019-12-02 05:00:00 16 23 Noroeste 45 Noroeste 0 -- -- 77
2019-12-02 04:00:00 16.1 28 Noroeste 46 Noroeste 0 -- -- 80
2019-12-02 03:00:00 16.3 23 Noroeste 35 Noroeste 0 -- -- 80
2019-12-02 02:00:00 16.3 22 Noroeste 36 Noroeste 0 -- -- 85
2019-12-02 01:00:00 16.5 19 Noroeste 31 Noroeste 0 -- -- 84
2019-12-02 00:00:00 16.9 22 Noroeste 38 Noroeste 0 -- -- 77
2019-12-01 23:00:00 17 22 Noroeste 32 Noroeste 0 -- -- 88
2019-12-01 22:00:00 17 20 Noroeste 39 Noroeste 0 -- -- 89
2019-12-01 21:00:00 16.9 20 Noroeste 31 Noroeste 0 -- -- 87
2019-12-01 20:00:00 16.4 16 Noroeste 29 Noroeste 0 -- -- 85
2019-12-01 19:00:00 16.4 13 Noroeste 21 Norte 0 -- -- 82
2019-12-01 18:00:00 17 15 Noroeste 24 Noroeste 0 -- -- 77
2019-12-01 17:00:00 18.3 12 Norte 33 Nordeste 0 -- -- 72
2019-12-01 16:00:00 18.9 17 Norte 27 Norte 0 -- -- 68
2019-12-01 15:00:00 18.7 20 Norte 36 Norte 0 -- -- 70
2019-12-01 14:00:00 19.9 22 Norte 37 Norte 0 -- -- 65
2019-12-01 13:00:00 19.5 20 Norte 33 Norte 0 -- -- 67
2019-12-01 12:00:00 19.9 14 Norte 26 Norte 0 -- -- 69
2019-12-01 11:00:00 18.5 15 Nordeste 27 Nordeste 0 -- -- 72
2019-12-01 10:00:00 18.1 14 Nordeste 25 Nordeste 0 -- -- 80
2019-12-01 09:00:00 17 9 Nordeste 17 Nordeste 0 -- -- 88
2019-12-01 08:00:00 15.7 6 Este 12 Nordeste 0 -- -- 91
2019-12-01 07:00:00 15.7 5 Este 19 Nordeste 0 -- -- 90
2019-12-01 06:00:00 15.7 7 Este 17 Nordeste 0 -- -- 91
2019-12-01 05:00:00 15.8 9 Nordeste 17 Nordeste 0 -- -- 92
2019-12-01 04:00:00 16 5 Este 12 Nordeste 0 -- -- 92
2019-12-01 03:00:00 16 5 Este 14 Este 0 -- -- 92
2019-12-01 02:00:00 16.3 5 Este 19 Nordeste 0 -- -- 92
2019-12-01 01:00:00 16.5 10 Nordeste 19 Nordeste 0 -- -- 93
2019-12-01 00:00:00 16.5 9 Nordeste 21 Nordeste 0 -- -- 93
2019-11-30 23:00:00 16.8 9 Nordeste 20 Nordeste 0 -- -- 93
2019-11-30 22:00:00 16.8 10 Nordeste 20 Nordeste 0 -- -- 94
2019-11-30 21:00:00 16.8 6 Norte 15 Norte 0 -- -- 93
2019-11-30 20:00:00 17.1 6 Norte 12 Norte 0 -- -- 92
2019-11-30 19:00:00 17.2 7 Norte 11 Norte 0 -- -- 90
2019-11-30 18:00:00 17.9 6 Norte 15 Nordeste 0 -- -- 86
2019-11-30 17:00:00 19 9 Nordeste 19 Este 0 -- -- 80
2019-11-30 16:00:00 20 10 Nordeste 22 Nordeste 0 -- -- 76
2019-11-30 15:00:00 20.4 15 Nordeste 23 Nordeste 0 -- -- 72
2019-11-30 14:00:00 21.5 15 Nordeste 22 Nordeste 0 -- -- 70
2019-11-30 13:00:00 22.7 13 Nordeste 19 Nordeste 0 -- -- 60
2019-11-30 12:00:00 24.2 13 Este 22 Este 0 -- -- 41
2019-11-30 11:00:00 23.7 11 Sudeste 17 Este 0 -- -- 42
2019-11-30 10:00:00 22.4 8 Este 13 Este 0 -- -- 50
2019-11-30 09:00:00 19.6 4 Este 9 Este 0 -- -- 58
2019-11-30 08:00:00 15.1 3 Noroeste 9 Noroeste 0 -- -- 69
2019-11-30 07:00:00 14.6 6 Noroeste 10 Noroeste 0 -- -- 68
2019-11-30 06:00:00 14.5 5 Noroeste 10 Noroeste 0 -- -- 72
2019-11-30 05:00:00 14.1 7 Oeste 12 Oeste 0 -- -- 75
2019-11-30 04:00:00 15.7 4 Oeste 12 Noroeste 0 -- -- 78
2019-11-30 03:00:00 15.2 5 Noroeste 11 Noroeste 0 -- -- 82
2019-11-30 02:00:00 16.2 6 Noroeste 13 Noroeste 0 -- -- 83
2019-11-30 01:00:00 15.2 8 Noroeste 15 Noroeste 0 -- -- 86
2019-11-30 00:00:00 15.5 9 Noroeste 13 Oeste 0 -- -- 92
2019-11-29 23:00:00 16.6 5 Noroeste 12 Norte 0 -- -- 94
2019-11-29 22:00:00 17 3 Oeste 13 Noroeste 0 -- -- 92
2019-11-29 21:00:00 16.5 8 Noroeste 14 Norte 0 -- -- 93
2019-11-29 20:00:00 17.3 9 Norte 15 Norte 0 -- -- 93
2019-11-29 19:00:00 17.7 10 Norte 15 Norte 0 -- -- 91
2019-11-29 18:00:00 18.7 10 Norte 15 Norte 0 -- -- 84
2019-11-29 17:00:00 21.3 5 Sur 14 Este 0 -- -- 73
2019-11-29 16:00:00 22.8 6 Este 14 Sudeste 0 -- -- 60
2019-11-29 15:00:00 22.7 6 Sudeste 19 Sudeste 0 -- -- 58
2019-11-29 14:00:00 23.6 11 Sudeste 20 Sudeste 0 -- -- 49
2019-11-29 13:00:00 23.7 12 Este 22 Nordeste 0 -- -- 43
2019-11-29 12:00:00 23.3 12 Este 22 Este 0 -- -- 47
2019-11-29 11:00:00 22.4 10 Este 21 Este 0 -- -- 54
2019-11-29 10:00:00 21.8 9 Sudeste 20 Este 0 -- -- 56
2019-11-29 09:00:00 20.1 7 Este 14 Este 0 -- -- 58
2019-11-29 08:00:00 16.9 4 Noroeste 7 Noroeste 0 -- -- 81
2019-11-29 07:00:00 16.4 2 Noroeste 8 Nordeste 0 -- -- 92
2019-11-29 06:00:00 15.4 2 Norte 8 Noroeste 0 -- -- 97
2019-11-29 05:00:00 15.8 3 Noroeste 6 Noroeste 0 -- -- 96
2019-11-29 04:00:00 16.5 2 Nordeste 6 Noroeste 0 -- -- 98
2019-11-29 03:00:00 16.6 3 Norte 9 Nordeste 0 -- -- 97
2019-11-29 02:00:00 16.7 3 Nordeste 9 Nordeste 0 -- -- 97
2019-11-29 01:00:00 16.6 3 Norte 12 Norte 0 -- -- 97
2019-11-29 00:00:00 16.5 4 Norte 9 Norte 0 -- -- 96
2019-11-28 23:00:00 16.6 2 Noroeste 10 Norte 0 -- -- 96
2019-11-28 22:00:00 16.7 5 Noroeste 13 Noroeste 0 -- -- 95
2019-11-28 21:00:00 16.7 6 Noroeste 13 Norte 0 -- -- 94
2019-11-28 20:00:00 16.8 7 Norte 12 Norte 0 -- -- 93
2019-11-28 19:00:00 17.1 5 Nordeste 13 Norte 0 -- -- 91
2019-11-28 18:00:00 17.4 8 Nordeste 14 Nordeste 0 -- -- 88
2019-11-28 17:00:00 18.1 10 Nordeste 22 Nordeste 0 -- -- 84
2019-11-28 16:00:00 19.3 11 Nordeste 19 Nordeste 0 -- -- 78
2019-11-28 15:00:00 20.3 12 Nordeste 19 Nordeste 0 -- -- 75
2019-11-28 14:00:00 20.7 8 Nordeste 19 Nordeste 0 -- -- 72
2019-11-28 13:00:00 20.2 11 Nordeste 18 Nordeste 0 -- -- 77
2019-11-28 12:00:00 18.3 6 Nordeste 13 Este 0 -- -- 85
2019-11-28 11:00:00 17.5 8 Nordeste 14 Nordeste 0 -- -- 87
2019-11-28 10:00:00 17.2 6 Nordeste 14 Nordeste 0 -- -- 89
2019-11-28 09:00:00 16.5 7 Este 15 Nordeste 0 -- -- 90
2019-11-28 08:00:00 16.3 8 Este 13 Nordeste 0 -- -- 91
2019-11-28 07:00:00 16.2 6 Este 14 Nordeste 0 -- -- 90
2019-11-28 06:00:00 16.2 8 Nordeste 16 Nordeste 0 -- -- 90
2019-11-28 05:00:00 16.1 6 Nordeste 13 Nordeste 0 -- -- 90
2019-11-28 04:00:00 16.1 6 Nordeste 13 Nordeste 0 -- -- 90
2019-11-28 03:00:00 16.1 6 Este 13 Nordeste 0 -- -- 90
2019-11-28 02:00:00 16 6 Este 12 Nordeste 0 -- -- 90
2019-11-28 01:00:00 16 4 Este 13 Este 0 -- -- 89
2019-11-28 00:00:00 16.3 7 Nordeste 16 Nordeste 0 -- -- 88
2019-11-27 23:00:00 16.4 9 Nordeste 17 Nordeste 0 -- -- 88
2019-11-27 22:00:00 16.6 11 Nordeste 19 Nordeste 0 -- -- 88
2019-11-27 21:00:00 16.6 11 Nordeste 17 Nordeste 0 -- -- 89
2019-11-27 20:00:00 16.6 10 Nordeste 19 Nordeste 0 -- -- 88
2019-11-27 19:00:00 16.8 9 Nordeste 17 Nordeste 0 -- -- 88
2019-11-27 18:00:00 16.9 10 Nordeste 22 Nordeste 0 -- -- 85
2019-11-27 17:00:00 17.8 13 Nordeste -- -- -- -- -- 82
2019-11-27 16:00:00 -- 10 Nordeste 22 Norte 0 -- -- --
2019-11-27 15:00:00 19.3 14 Nordeste 24 Nordeste 0 -- -- 75
2019-11-27 14:00:00 19.6 13 Nordeste 24 Nordeste 0 -- -- 75
2019-11-27 13:00:00 19.6 14 Nordeste 26 Norte 0 -- -- 75
2019-11-27 05:00:00 -- -- -- -- -- -- -- -- --
2019-11-27 04:00:00 15.9 6 Nordeste 20 Este 0 -- -- 92
2019-11-27 03:00:00 16.1 10 Nordeste 18 Nordeste 0 -- -- 93
2019-11-27 02:00:00 16.2 7 Nordeste 18 Nordeste 0 -- -- 93
2019-11-27 01:00:00 16.2 4 Nordeste 16 Norte 0 -- -- 93
2019-11-27 00:00:00 16 10 Nordeste 31 Norte 0 -- -- 93
2019-11-26 23:00:00 16 15 Norte 26 Norte 0 -- -- 93
2019-11-26 22:00:00 16.1 6 Norte 17 Nordeste 0 -- -- 93
2019-11-26 21:00:00 16.2 10 Norte 21 Norte 0 -- -- 92
2019-11-26 20:00:00 16.5 7 Nordeste 19 Nordeste 0 -- -- 91
2019-11-26 19:00:00 16.7 11 Nordeste 20 Nordeste 0 -- -- 90
2019-11-26 18:00:00 17 13 Nordeste 20 Nordeste 0 -- -- 87
2019-11-26 17:00:00 18.1 9 Nordeste 21 Nordeste 0 -- -- 82
2019-11-26 16:00:00 18.5 12 Nordeste 25 Nordeste 0 -- -- 79
2019-11-26 15:00:00 19.3 19 Nordeste 32 Norte 0 -- -- 76
2019-11-26 14:00:00 20.4 17 Nordeste 25 Nordeste 0 -- -- 73
2019-11-26 13:00:00 21 12 Nordeste 20 Este 0 -- -- 70
2019-11-26 12:00:00 20.6 9 Nordeste 20 Este 0 -- -- 70
2019-11-26 11:00:00 19.6 9 Nordeste 18 Nordeste 0 -- -- 78
2019-11-26 10:00:00 17.6 10 Este 20 Nordeste 0 -- -- 86
2019-11-26 09:00:00 16.8 12 Nordeste 20 Este 0 -- -- 90
2019-11-26 08:00:00 16.1 8 Este 17 Nordeste 0 -- -- 92
2019-11-26 07:00:00 15.9 7 Este 14 Nordeste 0 -- -- 93
2019-11-26 06:00:00 15.6 6 Nordeste 13 Nordeste 0 -- -- 93
2019-11-26 05:00:00 15.7 8 Nordeste 15 Nordeste 0 -- -- 93
2019-11-26 04:00:00 15.7 4 Norte 10 Nordeste 0 -- -- 93
2019-11-26 03:00:00 15.8 6 Nordeste 13 Nordeste 0 -- -- 93
2019-11-26 02:00:00 15.8 6 Nordeste 15 Nordeste 0 -- -- 92
2019-11-26 01:00:00 15.8 9 Nordeste 18 Nordeste 0 -- -- 92
2019-11-26 00:00:00 15.7 6 Nordeste 15 Nordeste 0 -- -- 91
2019-11-25 23:00:00 15.9 8 Nordeste 18 Nordeste 0 -- -- 90
2019-11-25 22:00:00 16 9 Nordeste 17 Nordeste 0 -- -- 89
2019-11-25 21:00:00 16.3 7 Norte 19 Nordeste 0 -- -- 89
2019-11-25 20:00:00 16.3 14 Norte 20 Norte 0 -- -- 88
2019-11-25 19:00:00 16.5 12 Norte 23 Norte 0 -- -- 87
2019-11-25 18:00:00 16.7 11 Norte 26 Nordeste 0 -- -- 86
2019-11-25 17:00:00 17.2 16 Nordeste 27 Nordeste 0 -- -- 82
2019-11-25 16:00:00 18 17 Nordeste 28 Nordeste 0 -- -- 79
2019-11-25 15:00:00 18.8 15 Nordeste 26 Nordeste 0 -- -- 76
2019-11-25 14:00:00 19 18 Nordeste 33 Nordeste 0 -- -- 75
2019-11-25 13:00:00 18.7 17 Nordeste 28 Nordeste 0 -- -- 78
2019-11-25 12:00:00 17.7 17 Nordeste 30 Nordeste 0 -- -- 82
2019-11-25 11:00:00 17.5 16 Nordeste 30 Nordeste 0 -- -- 81
2019-11-25 10:00:00 17.2 17 Nordeste 31 Nordeste 0 -- -- 82
2019-11-25 09:00:00 16.5 12 Nordeste 24 Norte 0 -- -- 84
2019-11-25 08:00:00 16.2 15 Nordeste 24 Nordeste 0 -- -- 85
2019-11-25 07:00:00 16 12 Nordeste 24 Norte 0 -- -- 85
2019-11-25 06:00:00 15.9 11 Nordeste 24 Nordeste 0 -- -- 85
2019-11-25 05:00:00 15.9 12 Nordeste 27 Nordeste 0 -- -- 86
2019-11-25 04:00:00 16 12 Norte 23 Norte 0 -- -- 86
2019-11-25 03:00:00 15.9 13 Norte 28 Norte 0 -- -- 86
2019-11-25 02:00:00 15.9 17 Norte 27 Norte 0 -- -- 84
2019-11-25 01:00:00 16.1 17 Norte 31 Norte 0 -- -- 83
2019-11-25 00:00:00 15.9 16 Norte 29 Norte 0 -- -- 83
2019-11-24 23:00:00 16 16 Norte 28 Norte 0 -- -- 81
2019-11-24 22:00:00 16.2 19 Norte 33 Norte 0 -- -- 78
2019-11-24 21:00:00 16.4 14 Norte 30 Norte 0 -- -- 79
2019-11-24 20:00:00 16.7 19 Norte 36 Norte 0 -- -- 76
2019-11-24 19:00:00 16.9 18 Norte 34 Norte 0 -- -- 79
2019-11-24 18:00:00 17.1 19 Norte 30 Noroeste 0 -- -- 79
2019-11-24 17:00:00 17.9 22 Noroeste 34 Noroeste 0 -- -- 75
2019-11-24 16:00:00 18.4 19 Norte 36 Norte 0 -- -- 72
2019-11-24 15:00:00 18.8 21 Norte 36 Norte 0 -- -- 72
2019-11-24 14:00:00 19.4 23 Norte 37 Norte 0 -- -- 68
2019-11-24 13:00:00 18.6 22 Norte 39 Norte 0 -- -- 74
2019-11-24 12:00:00 18.8 26 Norte 42 Norte 0 -- -- 68
2019-11-24 11:00:00 18.4 29 Norte 40 Norte 0 -- -- 72
2019-11-24 10:00:00 18.1 26 Norte 38 Norte 0 -- -- 78
2019-11-24 09:00:00 17.4 18 Norte 31 Norte 0 -- -- 83
2019-11-24 08:00:00 16.5 14 Norte 31 Noroeste 0 -- -- 89
2019-11-24 07:00:00 16.5 16 Noroeste 30 Norte 0 -- -- 88
2019-11-24 06:00:00 16.6 16 Noroeste 30 Norte 0 -- -- 90
2019-11-24 05:00:00 16.7 22 Noroeste 36 Noroeste 0 -- -- 92
2019-11-24 04:00:00 16.4 18 Noroeste 31 Norte 0 -- -- 91
2019-11-24 03:00:00 16.8 16 Noroeste 29 Noroeste 0 -- -- 89
2019-11-24 02:00:00 16.6 19 Noroeste 32 Norte 0 -- -- 87
2019-11-24 01:00:00 16.8 18 Norte 29 Noroeste 0 -- -- 89
2019-11-24 00:00:00 17.3 18 Noroeste 32 Noroeste 0 -- -- 90
2019-11-23 23:00:00 17.3 16 Noroeste 28 Noroeste 0 -- -- 90
2019-11-23 22:00:00 17.3 18 Noroeste 30 Noroeste 0 -- -- 90
2019-11-23 21:00:00 17.4 21 Noroeste 36 Noroeste 0 -- -- 89
2019-11-23 20:00:00 17.4 22 Noroeste 33 Noroeste 0 -- -- 89
2019-11-23 19:00:00 17.3 21 Noroeste 33 Norte 0 -- -- 87
2019-11-23 18:00:00 17.5 22 Noroeste 33 Norte 0 -- -- 85
2019-11-23 17:00:00 18.3 21 Noroeste 37 Noroeste 0 -- -- 81
2019-11-23 16:00:00 19.2 24 Noroeste 41 Noroeste 0 -- -- 84
2019-11-23 15:00:00 18.5 29 Noroeste 45 Norte 0 -- -- 91
2019-11-23 14:00:00 18.4 24 Noroeste 47 Noroeste 0 -- -- 94
2019-11-23 13:00:00 20.1 31 Noroeste 49 Noroeste 0 -- -- 92
2019-11-23 12:00:00 19.2 33 Noroeste 47 Noroeste 0 -- -- 94
2019-11-23 11:00:00 19.2 24 Noroeste 38 Oeste 0 -- -- 96
2019-11-23 10:00:00 18.9 26 Noroeste 40 Noroeste 0 -- -- 96
2019-11-23 09:00:00 18.9 25 Noroeste 39 Oeste 0 -- -- 95
2019-11-23 08:00:00 18.5 24 Noroeste 46 Noroeste 0 -- -- 95
2019-11-23 07:00:00 18.5 22 Noroeste 39 Noroeste 0 -- -- 95
2019-11-23 06:00:00 18.5 23 Noroeste 41 Noroeste 0 -- -- 94
2019-11-23 05:00:00 18.4 22 Noroeste 35 Oeste 0 -- -- 93
2019-11-23 04:00:00 18.2 21 Noroeste 42 Oeste 0 -- -- 95
2019-11-23 03:00:00 18 30 Noroeste 49 Noroeste 0 -- -- 95
2019-11-23 02:00:00 18.1 37 Noroeste 51 Oeste 0 -- -- 96
2019-11-23 01:00:00 18.2 20 Oeste 37 Oeste 0 -- -- 96
2019-11-23 00:00:00 18 9 Sudoeste 30 Sudoeste 0 -- -- 96
2019-11-22 23:00:00 17.9 13 Oeste 32 Oeste 0 -- -- 95
2019-11-22 22:00:00 17.8 14 Oeste 29 Oeste 0 -- -- 94
2019-11-22 21:00:00 18 12 Oeste 29 Oeste 0 -- -- 91
2019-11-22 20:00:00 18.1 12 Noroeste 26 Oeste 0 -- -- 90
2019-11-22 19:00:00 17.9 12 Oeste 28 Oeste 0 -- -- 88
2019-11-22 18:00:00 18.1 15 Oeste 35 Oeste 0 -- -- 88
2019-11-22 17:00:00 18.5 20 Oeste 31 Oeste 0 -- -- 86
2019-11-22 16:00:00 19.3 19 Oeste 32 Oeste 0 -- -- 83
2019-11-22 15:00:00 20 17 Noroeste 32 Noroeste 0 -- -- 82
2019-11-22 14:00:00 19.9 11 Oeste 25 Noroeste 0 -- -- 83
2019-11-22 13:00:00 19.3 13 Noroeste 28 Noroeste 0 -- -- 85
2019-11-22 12:00:00 19.4 14 Noroeste 24 Noroeste 0 -- -- 86
2019-11-22 11:00:00 19.4 13 Noroeste 25 Noroeste 0 -- -- 88
2019-11-22 10:00:00 18.8 16 Noroeste 33 Noroeste 0 -- -- 93
2019-11-22 09:00:00 18.5 15 Noroeste 30 Noroeste 0 -- -- 96
2019-11-22 08:00:00 17.7 17 Noroeste 32 Noroeste 0 -- -- 96
2019-11-22 07:00:00 17.6 14 Noroeste 25 Oeste 0 -- -- 97
2019-11-22 06:00:00 17.8 15 Oeste 36 Oeste 0 -- -- 96
2019-11-22 05:00:00 17.7 23 Oeste 39 Oeste 0 -- -- 95
2019-11-22 04:00:00 17.7 18 Oeste 30 Sudoeste 0 -- -- 94
2019-11-22 03:00:00 17.8 12 Oeste 41 Oeste 0 -- -- 93
2019-11-22 02:00:00 17.8 25 Oeste 49 Oeste 0 -- -- 92
2019-11-22 01:00:00 17.9 33 Oeste 50 Oeste 0 -- -- 89
2019-11-22 00:00:00 18.1 31 Oeste 47 Oeste 0 -- -- 86
2019-11-21 23:00:00 18.2 18 Oeste 36 Oeste 0 -- -- 85
2019-11-21 22:00:00 17.8 17 Oeste 33 Oeste 0 -- -- 87
2019-11-21 21:00:00 17.7 15 Oeste 37 Oeste 0 -- -- 86
2019-11-21 20:00:00 17.6 20 Oeste 37 Oeste 0 -- -- 85
2019-11-21 19:00:00 17.7 18 Oeste 39 Oeste 0 -- -- 84
2019-11-21 18:00:00 17.8 24 Oeste 40 Oeste 0 -- -- 80
2019-11-21 17:00:00 18.4 21 Oeste 40 Oeste 0 -- -- 76
2019-11-21 16:00:00 19.1 22 Oeste 40 Oeste 0 -- -- 73
2019-11-21 15:00:00 19.5 24 Oeste 46 Oeste 0 -- -- 72
2019-11-21 14:00:00 19.8 24 Oeste 37 Oeste 0 -- -- 74
2019-11-21 13:00:00 20.1 18 Oeste 34 Oeste 0 -- -- 72
2019-11-21 12:00:00 20.3 13 Oeste 32 Oeste 0 -- -- 70
2019-11-21 11:00:00 18.8 10 Oeste 23 Oeste 0 -- -- 79
2019-11-21 10:00:00 18.1 6 Oeste 16 Sudoeste 0 -- -- 86
2019-11-21 09:00:00 17 8 Oeste 17 Oeste 0 -- -- 89
2019-11-21 08:00:00 15.9 2 Sudoeste 10 Oeste 0 -- -- 91
2019-11-21 07:00:00 -- -- -- -- -- -- -- -- --
2019-11-21 06:00:00 -- -- -- -- -- -- -- -- --
2019-11-21 05:00:00 -- -- -- -- -- -- -- -- --
2019-11-21 04:00:00 -- -- -- -- -- -- -- -- --
2019-11-21 03:00:00 -- -- -- -- -- -- -- -- --
2019-11-21 02:00:00 -- -- -- -- -- -- -- -- --
2019-11-21 01:00:00 -- -- -- -- -- -- -- -- --
2019-11-21 00:00:00 -- -- -- -- -- -- -- -- --
2019-11-20 23:00:00 -- -- -- -- -- -- -- -- --
2019-11-20 22:00:00 -- -- -- -- -- -- -- -- --
2019-11-20 21:00:00 -- -- -- -- -- -- -- -- --
2019-11-20 20:00:00 -- -- -- -- -- -- -- -- --
2019-11-20 19:00:00 17.6 18 Oeste 38 Oeste 0 -- -- 91
2019-11-20 18:00:00 18 19 Oeste 39 Oeste 0 -- -- 87
2019-11-20 17:00:00 18.3 15 Oeste 33 Oeste 0 -- -- 84
2019-11-20 16:00:00 18.8 15 Oeste 34 Oeste 0 -- -- 81
2019-11-20 15:00:00 19.5 25 Oeste 37 Oeste 0 -- -- 78
2019-11-20 14:00:00 19.7 22 Oeste 37 Oeste 0 -- -- 81
2019-11-20 13:00:00 19.8 22 Oeste 34 Oeste 0 -- -- 78
2019-11-20 12:00:00 19.4 17 Oeste 32 Oeste 0 -- -- 78
2019-11-20 11:00:00 19.5 11 Oeste 21 Oeste 0 -- -- 78
2019-11-20 10:00:00 18.2 9 Oeste 19 Oeste 0 -- -- 83
2019-11-20 09:00:00 16.7 3 Oeste 13 Oeste 0 -- -- 92
2019-11-20 08:00:00 13.6 5 Oeste 8 Oeste 0 -- -- 94
2019-11-20 07:00:00 13.2 6 Oeste 11 Oeste 0 -- -- 93
2019-11-20 06:00:00 13.3 9 Oeste 14 Oeste 0 -- -- 92
2019-11-20 05:00:00 14.3 13 Oeste 19 Oeste 0 -- -- 91
2019-11-20 04:00:00 14.7 9 Oeste 14 Oeste 0 -- -- 91
2019-11-20 03:00:00 14.9 3 Sudoeste 9 Sudoeste 0 -- -- 91
2019-11-20 02:00:00 14.7 2 Noroeste 11 Oeste 0 -- -- 90
2019-11-20 01:00:00 14.7 4 Noroeste 8 Noroeste 0 -- -- 90
2019-11-20 00:00:00 14.8 5 Noroeste 8 Noroeste 0 -- -- 89
2019-11-19 23:00:00 15 4 Noroeste 10 Noroeste 0 -- -- 87
2019-11-19 22:00:00 15.5 7 Noroeste 15 Noroeste 0 -- -- 86
2019-11-19 21:00:00 15.5 9 Noroeste 14 Noroeste 0 -- -- 85
2019-11-19 20:00:00 15.7 8 Noroeste 16 Noroeste 0 -- -- 84
2019-11-19 19:00:00 16.1 10 Noroeste 25 Noroeste 0 -- -- 80
2019-11-19 18:00:00 16.8 15 Noroeste 29 Noroeste 0 -- -- 77
2019-11-19 17:00:00 17.4 18 Noroeste 27 Noroeste 0 -- -- 75
2019-11-19 16:00:00 18.4 16 Norte 28 Noroeste 0 -- -- 72
2019-11-19 15:00:00 18.1 21 Noroeste 34 Noroeste 0 -- -- 73
2019-11-19 14:00:00 18.6 22 Noroeste 32 Noroeste 0 -- -- 73
2019-11-19 13:00:00 19 18 Noroeste 38 Noroeste 0 -- -- 75
2019-11-19 12:00:00 18.1 23 Noroeste 35 Noroeste 0 -- -- 82
2019-11-19 11:00:00 17.3 23 Noroeste 38 Noroeste 0 -- -- 88
2019-11-19 10:00:00 17.4 19 Noroeste 28 Noroeste 0 -- -- 89
2019-11-19 09:00:00 16.7 18 Norte 31 Noroeste 0 -- -- 92
2019-11-19 08:00:00 16.3 19 Noroeste 36 Noroeste 0 -- -- 93
2019-11-19 07:00:00 15.9 25 Noroeste 38 Noroeste 0 -- -- 91
2019-11-19 06:00:00 16.5 21 Noroeste 34 Noroeste 0 -- -- 91
2019-11-19 05:00:00 16.4 17 Noroeste 33 Noroeste 0 -- -- 91
2019-11-19 04:00:00 16.3 15 Noroeste 25 Noroeste 0 -- -- 93
2019-11-19 03:00:00 16.2 12 Noroeste 28 Noroeste 0 -- -- 92
2019-11-19 02:00:00 16.4 16 Noroeste 27 Noroeste 0 -- -- 89
2019-11-19 01:00:00 16.4 13 Noroeste 30 Noroeste 0 -- -- 87
2019-11-19 00:00:00 16.3 18 Noroeste 30 Noroeste 0 -- -- 87
2019-11-18 23:00:00 16.1 18 Noroeste 29 Noroeste 0 -- -- 87
2019-11-18 22:00:00 15.9 13 Noroeste 24 Noroeste 0 -- -- 86
2019-11-18 21:00:00 16 13 Noroeste 22 Noroeste 0 -- -- 84
2019-11-18 20:00:00 16 14 Noroeste 23 Noroeste 0 -- -- 83
2019-11-18 19:00:00 16.3 14 Noroeste 23 Noroeste 0 -- -- 80
2019-11-18 18:00:00 16.6 15 Noroeste 24 Norte 0 -- -- 77
2019-11-18 17:00:00 17.3 15 Noroeste 31 Noroeste 0 -- -- 74
2019-11-18 16:00:00 18 16 Noroeste 24 Noroeste 0 -- -- 72
2019-11-18 15:00:00 18.4 14 Nordeste 24 Norte 0 -- -- 68
2019-11-18 14:00:00 18.4 15 Nordeste 27 Norte 0 -- -- 68
2019-11-18 13:00:00 18.2 13 Nordeste 21 Nordeste 0 -- -- 69
2019-11-18 12:00:00 17.6 11 Nordeste 25 Nordeste 0 -- -- 73
2019-11-18 11:00:00 17.4 13 Nordeste 24 Nordeste 0 -- -- 74
2019-11-18 10:00:00 17.7 12 Nordeste 23 Nordeste 0 -- -- 74
2019-11-18 09:00:00 16.8 13 Nordeste 22 Nordeste 0 -- -- 83
2019-11-18 08:00:00 14.3 4 Nordeste 9 Nordeste 0 -- -- 88
2019-11-18 07:00:00 13.8 2 Nordeste 10 Nordeste 0 -- -- 87
2019-11-18 06:00:00 13.8 4 Nordeste 12 Nordeste 0 -- -- 86
2019-11-18 05:00:00 13.7 2 Este 9 Nordeste 0 -- -- 86
2019-11-18 04:00:00 13.6 4 Nordeste 11 Nordeste 0 -- -- 85
2019-11-18 03:00:00 13.7 4 Nordeste 10 Nordeste 0 -- -- 85
2019-11-18 02:00:00 13.6 4 Nordeste 13 Nordeste 0 -- -- 84
2019-11-18 01:00:00 13.7 2 Nordeste 15 Este 0 -- -- 82
2019-11-18 00:00:00 13.9 7 Nordeste 21 Nordeste 0 -- -- 80
2019-11-17 23:00:00 14.2 12 Nordeste 21 Nordeste 0 -- -- 78
2019-11-17 22:00:00 14.3 10 Nordeste 21 Nordeste 0 -- -- 77
2019-11-17 21:00:00 14.3 11 Nordeste 21 Nordeste 0 -- -- 75
2019-11-17 20:00:00 14.3 8 Nordeste 24 Nordeste 0 -- -- 73
2019-11-17 19:00:00 14.7 13 Nordeste 23 Nordeste 0 -- -- 71
2019-11-17 18:00:00 15 14 Nordeste 27 Nordeste 0 -- -- 69
2019-11-17 17:00:00 16.2 12 Nordeste 26 Nordeste 0 -- -- 64
2019-11-17 16:00:00 16.9 16 Nordeste 30 Nordeste 0 -- -- 63
2019-11-17 15:00:00 17 17 Nordeste 33 Nordeste 0 -- -- 63
2019-11-17 14:00:00 17.3 22 Nordeste 40 Nordeste 0 -- -- 65
2019-11-17 13:00:00 17.5 19 Nordeste 38 Nordeste 0 -- -- 66
2019-11-17 12:00:00 17.9 22 Nordeste 37 Nordeste 0 -- -- 64
2019-11-17 11:00:00 17.9 21 Nordeste 37 Nordeste 0 -- -- 63
2019-11-17 10:00:00 17 23 Nordeste 39 Nordeste 0 -- -- 69
2019-11-17 09:00:00 16.6 21 Nordeste 36 Nordeste 0 -- -- 69
2019-11-17 08:00:00 15.6 17 Nordeste 30 Nordeste 0 -- -- 74
2019-11-17 07:00:00 15.1 17 Nordeste 28 Este 0 -- -- 75
2019-11-17 06:00:00 14.8 13 Nordeste 36 Nordeste 0 -- -- 67
2019-11-17 05:00:00 15.2 23 Nordeste 40 Nordeste 0 -- -- 64
2019-11-17 04:00:00 15.3 10 Norte 35 Nordeste 0 -- -- 66
2019-11-17 03:00:00 15.1 16 Norte 37 Nordeste 0 -- -- 73
2019-11-17 02:00:00 15.4 19 Norte 38 Norte 0 -- -- 73
2019-11-17 01:00:00 15.4 21 Norte 38 Norte 0 -- -- 72
2019-11-17 00:00:00 15.1 20 Norte 33 Norte 0 -- -- 69
2019-11-16 23:00:00 15.2 21 Norte 37 Norte 0 -- -- 71
2019-11-16 22:00:00 15.1 19 Norte 46 Nordeste 0 -- -- 74
2019-11-16 21:00:00 15.3 19 Norte 38 Norte 0 -- -- 68
2019-11-16 20:00:00 15.5 20 Norte 39 Norte 0 -- -- 70
2019-11-16 19:00:00 15.5 21 Norte 39 Norte 0 -- -- 77
2019-11-16 18:00:00 14.9 21 Norte 45 Norte 0 -- -- 78
2019-11-16 17:00:00 15.5 22 Norte 40 Norte 0 -- -- 77
2019-11-16 16:00:00 16.5 22 Norte 48 Norte 0 -- -- 73
2019-11-16 15:00:00 17.5 28 Norte 45 Nordeste 0 -- -- 72
2019-11-16 14:00:00 17.9 30 Norte 50 Norte 0 -- -- 66
2019-11-16 13:00:00 18.2 30 Norte 48 Norte 0 -- -- 63
2019-11-16 12:00:00 16.7 31 Norte 51 Norte 0 -- -- 70
2019-11-16 11:00:00 17.5 28 Norte 48 Norte 0 -- -- 69
2019-11-16 10:00:00 17.4 31 Norte 51 Norte 0 -- -- 67
2019-11-16 09:00:00 16.4 19 Norte 40 Norte 0 -- -- 73
2019-11-16 08:00:00 14.8 26 Norte 43 Norte 0 -- -- 78
2019-11-16 07:00:00 14.5 23 Noroeste 55 Noroeste 0 -- -- 78
2019-11-16 06:00:00 14.9 27 Norte 46 Norte 0 -- -- 76
2019-11-16 05:00:00 15.3 23 Norte 49 Norte 0 -- -- 75
2019-11-16 04:00:00 15.1 21 Norte 39 Norte 0 -- -- 76
2019-11-16 03:00:00 15.2 28 Norte 43 Norte 0 -- -- 75
2019-11-16 02:00:00 15.5 27 Norte 45 Norte 0 -- -- 74
2019-11-16 01:00:00 15.7 25 Norte 47 Norte 0 -- -- 70
2019-11-16 00:00:00 15.8 24 Norte 48 Norte 0 -- -- 71
2019-11-15 23:00:00 15.6 24 Norte 45 Norte 0 -- -- 73
2019-11-15 22:00:00 14.8 22 Norte 43 Noroeste 0 -- -- 77
2019-11-15 21:00:00 15.7 26 Norte 41 Norte 0 -- -- 69
2019-11-15 20:00:00 16 26 Norte 40 Norte 0 -- -- 68
2019-11-15 19:00:00 15.9 22 Norte 42 Norte 0 -- -- 72
2019-11-15 18:00:00 16.2 23 Norte 40 Norte 0 -- -- 72
2019-11-15 17:00:00 16.4 24 Norte 63 Noroeste 0 -- -- 71
2019-11-15 16:00:00 16.6 23 Norte 42 Norte 0 -- -- 72
2019-11-15 15:00:00 16.9 25 Norte 44 Norte 0 -- -- 75
2019-11-15 14:00:00 17.9 28 Norte 48 Norte 0 -- -- 63
2019-11-15 13:00:00 19 27 Norte 45 Norte 0 -- -- 61
2019-11-15 12:00:00 18.6 27 Norte 46 Norte 0 -- -- 63
2019-11-15 11:00:00 17.7 23 Norte 43 Norte 0 -- -- 70
2019-11-15 10:00:00 16.6 28 Norte 43 Norte 0 -- -- 75
2019-11-15 09:00:00 15.2 27 Norte 49 Norte 0 -- -- 86
2019-11-15 08:00:00 15.4 30 Norte 43 Norte 0 -- -- 85
2019-11-15 07:00:00 16.4 24 Norte 39 Noroeste 0 -- -- 81
2019-11-15 06:00:00 16.5 22 Norte 39 Norte 0 -- -- 81
2019-11-15 05:00:00 16.7 22 Norte 36 Noroeste 0 -- -- 81
2019-11-15 04:00:00 16.8 24 Norte 38 Norte 0 -- -- 78
2019-11-15 03:00:00 16.8 26 Norte 42 Norte 0 -- -- 78
2019-11-15 02:00:00 17 19 Norte 32 Norte 0 -- -- 74
2019-11-15 01:00:00 17 13 Norte 37 Norte 0 -- -- 69
2019-11-15 00:00:00 16.9 21 Norte 35 Norte 0 -- -- 74